Latest Coastal Weather Observations for Low Head

IDT60701

Issued at 9:32 pm EST Thursday 25 August 2016 (issued every 10 minutes, with the page automatically refreshed every 10 minutes)

About coastal observations | Map of coastal stations | Coastal observations for TAS | Marine services | Other Formats
Station Details ID: 091293 Name: LOW HEAD Lat: -41.05 Lon: 146.79 Height: 3.0 m
Data from the previous 72 hours. | See also: Recent months at Low Head
Date/Time
EST
Temp
°C
Wind Pressure Rain since
9am
mm
Weather Cloud Vis
km
Sea
Height
m
Swell
Dir  Spd
kts
Gust
kts
hPa Trend Height
m
Period
s
Dir
25/09:30pm 9.1 SSW 7 10 1014.6 - 0.0 - - - - - - -
25/09:00pm 9.8 WSW 11 14 1014.5 - 0.0 - - - - - - -
25/08:30pm 9.4 SSW 5 6 1014.1 - 0.0 - - - - - - -
25/08:00pm 9.7 S 4 6 1013.7 - 0.0 - - - - - - -
25/07:30pm 10.0 S 4 6 1013.4 - 0.0 - - - - - - -
25/07:00pm 11.5 WSW 7 10 1013.1 - 0.0 - - - - - - -
25/06:30pm 11.7 NNW 10 12 1013.0 - 0.0 - - - - - - -
25/06:00pm 11.5 NNW 10 13 1012.7 - 0.0 - - - - - - -
25/05:30pm 11.6 N 8 9 1012.4 - 0.0 - - - - - - -
25/05:00pm 11.9 NW 8 9 1012.3 - 0.0 - - - - - - -
25/04:30pm 12.3 NW 9 11 1012.2 - 0.0 - - - - - - -
25/04:00pm 12.5 WNW 10 11 1012.1 - 0.0 - - - - - - -
25/03:30pm 12.7 NW 10 11 1012.1 - 0.0 - - - - - - -
25/03:00pm 12.9 NW 10 11 1012.0 - 0.0 - - - - - - -
25/02:30pm 12.9 WNW 9 11 1011.8 - 0.0 - - - - - - -
25/02:00pm 12.8 NW 9 11 1011.8 - 0.0 - - - - - - -
25/01:30pm 12.6 NW 10 11 1011.6 - 0.0 - - - - - - -
25/01:00pm 12.5 WNW 8 9 1011.7 - 0.0 - - - - - - -
25/12:30pm 12.2 NW 8 9 1011.8 - 0.0 - - - - - - -
25/12:00pm 10.7 SSW 4 5 1011.9 - 0.0 - - - - - - -
25/11:30am 10.3 SSW 7 9 1011.9 - 0.0 - - - - - - -
25/11:00am 10.0 S 8 10 1012.0 - 0.0 - - - - - - -
25/10:30am 9.4 SSE 8 10 1012.0 - 0.0 - - - - - - -
25/10:00am 8.5 SE 9 12 1011.9 - 0.0 - - - - - - -
25/09:30am 7.5 S 11 13 1011.9 - 0.0 - - - - - - -
25/09:00am 6.7 S 9 11 1011.6 - 0.0 - - - - - - -
25/08:30am 5.7 S 11 12 1011.4 - 0.0 - - - - - - -
25/08:00am 5.4 S 11 14 1011.1 - 0.0 - - - - - - -
25/07:30am 5.5 S 13 15 1010.8 - 0.0 - - - - - - -
25/07:00am 4.0 SSE 9 11 1010.6 - 0.0 - - - - - - -
25/06:30am 3.9 SSE 10 12 1010.5 - 0.0 - - - - - - -
25/06:00am 4.4 SSE 11 14 1010.1 - 0.0 - - - - - - -
25/05:30am 4.1 SSE 11 14 1009.6 - 0.0 - - - - - - -
25/05:00am 5.0 S 12 16 1009.4 - 0.0 - - - - - - -
25/04:30am 4.2 SSE 8 9 1009.2 - 0.0 - - - - - - -
25/04:00am 4.7 SSE 10 13 1009.4 - 0.0 - - - - - - -
25/03:30am 5.2 SSE 11 14 1009.2 - 0.0 - - - - - - -
25/03:00am 5.5 SSE 11 13 1009.3 - 0.0 - - - - - - -
25/02:30am 5.4 S 7 11 1009.2 - 0.0 - - - - - - -
25/02:00am 6.1 S 9 10 1009.3 - 0.0 - - - - - - -
25/01:30am 6.1 S 7 9 1009.6 - 0.0 - - - - - - -
25/01:00am 6.0 S 6 7 1009.5 - 0.0 - - - - - - -
25/12:30am 6.2 SSE 7 7 1009.6 - 0.0 - - - - - - -
25/12:00am 8.4 W 7 8 1009.7 - 0.0 - - - - - - -
 
Date/Time
EST
Temp
°C
Wind Pressure Rain since
9am
mm
Weather Cloud Vis
km
Sea
Height
m
Swell
Dir  Spd
kts
Gust
kts
hPa Trend Height
m
Period
s
Dir
24/11:30pm 8.6 W 7 9 1009.8 - 0.0 - - - - - - -
24/11:00pm 8.8 WSW 11 12 1010.1 - 0.0 - - - - - - -
24/10:30pm 8.9 WSW 12 15 1010.1 - 0.0 - - - - - - -
24/10:00pm 9.2 WSW 14 16 1010.2 - 0.0 - - - - - - -
24/09:30pm 9.2 W 11 15 1010.4 - 0.0 - - - - - - -
24/09:00pm 9.6 W 11 13 1010.6 - 0.0 - - - - - - -
24/08:30pm 9.5 W 7 9 1010.7 - 0.0 - - - - - - -
24/08:00pm 9.7 W 7 9 1010.7 - 0.0 - - - - - - -
24/07:30pm 10.3 WSW 10 12 1010.7 - 0.0 - - - - - - -
24/07:00pm 10.8 WSW 11 14 1010.5 - 0.0 - - - - - - -
24/06:30pm 11.4 W 17 19 1010.2 - 0.0 - - - - - - -
24/06:00pm 11.6 W 17 20 1010.0 - 0.0 - - - - - - -
24/05:30pm 11.6 WNW 19 21 1010.1 - 0.0 - - - - - - -
24/05:00pm 11.7 WNW 18 21 1010.2 - 0.0 - - - - - - -
24/04:30pm 12.1 WNW 17 19 1010.4 - 0.0 - - - - - - -
24/04:00pm 11.9 NW 17 19 1010.5 - 0.0 - - - - - - -
24/03:30pm 12.0 WNW 16 18 1010.7 - 0.0 - - - - - - -
24/03:00pm 12.1 WNW 15 17 1010.8 - 0.0 - - - - - - -
24/02:30pm 11.8 WNW 16 17 1010.9 - 0.0 - - - - - - -
24/02:00pm 11.9 WNW 15 17 1011.0 - 0.0 - - - - - - -
24/01:30pm 11.9 WNW 14 17 1011.4 - 0.0 - - - - - - -
24/01:00pm 11.5 WNW 14 16 1011.9 - 0.0 - - - - - - -
24/12:30pm 11.5 WNW 14 16 1012.3 - 0.0 - - - - - - -
24/12:00pm 10.6 WNW 13 15 1012.8 - 0.0 - - - - - - -
24/11:30am 10.4 WNW 12 13 1013.3 - 0.0 - - - - - - -
24/11:00am 9.2 SW 5 7 1013.6 - 0.0 - - - - - - -
24/10:30am 7.8 S 4 6 1013.9 - 0.0 - - - - - - -
24/10:00am 7.2 S 6 8 1014.2 - 0.0 - - - - - - -
24/09:30am 5.9 S 7 8 1014.4 - 0.0 - - - - - - -
24/09:00am 4.6 S 8 9 1014.7 - 0.0 - - - - - - -
24/08:30am 3.8 SSE 8 10 1014.9 - 0.0 - - - - - - -
24/08:00am 3.6 SSE 8 11 1015.0 - 0.0 - - - - - - -
24/07:30am 3.5 S 6 8 1014.9 - 0.0 - - - - - - -
24/07:00am 3.2 SSE 7 8 1014.9 - 0.0 - - - - - - -
24/06:30am 3.7 SSE 7 8 1014.7 - 0.0 - - - - - - -
24/06:00am 4.1 SSE 7 8 1014.6 - 0.0 - - - - - - -
24/05:30am 4.0 S 7 9 1014.4 - 0.0 - - - - - - -
24/05:00am 4.3 SSE 7 8 1014.4 - 0.0 - - - - - - -
24/04:30am 4.3 S 7 8 1014.3 - 0.0 - - - - - - -
24/04:00am 5.3 S 5 6 1014.2 - 0.0 - - - - - - -
24/03:30am 5.3 S 6 8 1014.3 - 0.0 - - - - - - -
24/03:00am 6.4 SSW 5 6 1014.3 - 0.0 - - - - - - -
24/02:30am 7.0 WSW 5 6 1014.5 - 0.0 - - - - - - -
24/02:00am 6.3 S 5 6 1015.1 - 0.0 - - - - - - -
24/01:30am 7.6 SSW 6 7 1015.0 - 0.0 - - - - - - -
24/01:00am 7.3 S 7 8 1015.1 - 0.0 - - - - - - -
24/12:30am 7.7 SSW 5 8 1015.4 - 0.0 - - - - - - -
24/12:00am 8.5 W 9 10 1015.6 - 0.0 - - - - - - -
 
Date/Time
EST
Temp
°C
Wind Pressure Rain since
9am
mm
Weather Cloud Vis
km
Sea
Height
m
Swell
Dir  Spd
kts
Gust
kts
hPa Trend Height
m
Period
s
Dir
23/11:30pm 8.8 WSW 10 11 1015.5 - 0.0 - - - - - - -
23/11:00pm 9.2 WSW 10 11 1015.7 - 0.0 - - - - - - -
23/10:30pm 9.2 WSW 9 11 1015.9 - 0.0 - - - - - - -
23/10:00pm 9.3 W 11 13 1015.9 - 0.0 - - - - - - -
23/09:30pm 9.5 W 11 12 1015.6 - 0.0 - - - - - - -
23/09:00pm 9.8 W 11 12 1015.6 - 0.0 - - - - - - -
23/08:30pm 9.9 WSW 10 12 1015.5 - 0.0 - - - - - - -
23/08:00pm 10.2 WSW 11 13 1015.1 - 0.0 - - - - - - -
23/07:30pm 10.5 WSW 11 14 1015.1 - 0.0 - - - - - - -
23/07:00pm 10.8 WSW 11 12 1015.0 - 0.0 - - - - - - -
23/06:30pm 11.7 WSW 11 13 1014.8 - 0.0 - - - - - - -
23/06:00pm 11.6 W 12 14 1014.7 - 0.0 - - - - - - -
23/05:30pm 11.9 W 10 12 1014.4 - 0.0 - - - - - - -
23/05:00pm 12.2 NW 9 11 1014.2 - 0.0 - - - - - - -
23/04:30pm 12.5 NW 9 11 1014.0 - 0.0 - - - - - - -
23/04:00pm 12.3 WNW 11 12 1013.9 - 0.0 - - - - - - -
23/03:30pm 12.3 WNW 11 13 1013.7 - 0.0 - - - - - - -
23/03:00pm 11.9 W 11 13 1013.5 - 0.0 - - - - - - -
23/02:30pm 11.5 W 12 13 1013.6 - 0.0 - - - - - - -
23/02:00pm 11.3 WNW 13 15 1013.7 - 0.0 - - - - - - -
23/01:30pm 11.2 WNW 14 16 1013.9 - 0.0 - - - - - - -
23/01:00pm 11.1 WNW 13 16 1014.2 - 0.0 - - - - - - -
23/12:30pm 11.4 WNW 11 14 1014.5 - 0.0 - - - - - - -
23/12:00pm 10.4 WNW 10 11 1014.9 - 0.0 - - - - - - -
23/11:30am 9.8 W 6 10 1015.2 - 0.0 - - - - - - -
23/11:00am 8.5 SW 4 5 1015.4 - 0.0 - - - - - - -
23/10:30am 7.4 S 6 7 1015.4 - 0.0 - - - - - - -
23/10:00am 6.5 S 7 9 1015.4 - 0.0 - - - - - - -
23/09:30am 5.2 S 10 11 1015.5 - 0.0 - - - - - - -
23/09:00am 4.4 S 11 13 1015.5 - 0.0 - - - - - - -
23/08:30am 4.2 S 10 12 1015.3 - 0.0 - - - - - - -
23/08:00am 3.4 S 9 11 1015.1 - 0.0 - - - - - - -
23/07:30am 4.8 S 7 9 1014.9 - 0.0 - - - - - - -
23/07:00am 4.5 SSE 8 11 1014.7 - 0.0 - - - - - - -
23/06:30am 5.5 ESE 5 7 1014.3 - 0.0 - - - - - - -
23/06:00am 6.7 SW 12 13 1014.0 - 0.0 - - - - - - -
23/05:30am 7.2 WSW 13 15 1013.7 - 0.0 - - - - - - -
23/05:00am 7.4 WSW 15 16 1013.5 - 0.0 - - - - - - -
23/04:30am 7.3 SW 11 13 1013.7 - 0.0 - - - - - - -
23/04:00am 7.3 WSW 10 11 1013.6 - 0.0 - - - - - - -
23/03:30am 7.5 WSW 13 15 1013.7 - 0.0 - - - - - - -
23/03:00am 7.8 WSW 12 13 1013.7 - 0.0 - - - - - - -
23/02:30am 7.8 WSW 16 17 1014.0 - 0.0 - - - - - - -
23/02:00am 8.0 WSW 14 17 1014.2 - 0.0 - - - - - - -
23/01:30am 8.2 WSW 12 14 1014.3 - 0.0 - - - - - - -
23/01:00am 7.9 WSW 12 14 1014.4 - 0.0 - - - - - - -
23/12:30am 8.5 WSW 11 14 1014.4 - 0.0 - - - - - - -
23/12:00am 8.0 SW 9 11 1014.4 - 0.0 - - - - - - -
 
Date/Time
EST
Temp
°C
Wind Pressure Rain since
9am
mm
Weather Cloud Vis
km
Sea
Height
m
Swell
Dir  Spd
kts
Gust
kts
hPa Trend Height
m
Period
s
Dir
22/11:30pm 8.4 SW 6 7 1014.2 - 0.0 - - - - - - -
22/11:00pm 8.6 SW 6 8 1014.2 - 0.0 - - - - - - -
22/10:30pm 8.6 SW 8 11 1014.2 - 0.0 - - - - - - -
22/10:00pm 8.5 WSW 8 10 1014.1 - 0.0 - - - - - - -

Other Formats:

Comma delimited format used in spreadsheet applications
http://www.bom.gov.au/fwo/IDT60701/IDT60701.95964.axf

JavaScript Object Notation format (JSON) in row-major order
http://www.bom.gov.au/fwo/IDT60701/IDT60701.95964.json